createdAt,value
2023-03-26T00:02:41.880Z,1.40
2023-03-26T00:05:29.910Z,0.90
2023-03-26T00:08:17.851Z,1.20
2023-03-26T00:11:06.647Z,1.10
2023-03-26T00:13:56.865Z,0.90
2023-03-26T00:16:45.933Z,1.30
2023-03-26T00:19:34.398Z,0.90
2023-03-26T00:22:23.630Z,0.97
2023-03-26T00:25:11.658Z,1.30
2023-03-26T00:27:59.232Z,2.50
2023-03-26T00:30:47.217Z,1.10
2023-03-26T00:33:38.395Z,1.00
2023-03-26T00:36:26.645Z,0.80
2023-03-26T00:39:15.690Z,1.00
2023-03-26T00:42:07.295Z,0.90
2023-03-26T00:44:57.738Z,1.00
2023-03-26T00:47:45.814Z,1.33
2023-03-26T00:50:33.309Z,1.13
2023-03-26T00:53:21.326Z,1.20
2023-03-26T00:56:09.495Z,1.37
2023-03-26T00:58:57.967Z,1.00
2023-03-26T01:01:45.529Z,1.17
2023-03-26T01:04:35.402Z,1.23
2023-03-26T01:07:28.808Z,1.13
2023-03-26T01:10:16.622Z,1.00
2023-03-26T01:13:04.089Z,1.10
2023-03-26T01:15:53.491Z,1.07
2023-03-26T01:18:41.630Z,1.20
2023-03-26T01:21:30.744Z,1.63
2023-03-26T01:24:18.218Z,1.03
2023-03-26T01:27:11.128Z,1.53
2023-03-26T01:30:03.985Z,1.57
2023-03-26T01:32:51.979Z,1.37
2023-03-26T01:35:45.797Z,1.50
2023-03-26T01:39:02.730Z,1.37
2023-03-26T01:41:52.801Z,1.33
2023-03-26T01:44:54.217Z,1.00
2023-03-26T01:47:43.503Z,1.30
2023-03-26T01:50:31.296Z,1.33
2023-03-26T01:53:19.353Z,1.20
2023-03-26T01:56:06.948Z,1.23
2023-03-26T01:59:01.312Z,1.37
2023-03-26T02:01:55.848Z,1.23
2023-03-26T02:04:53.557Z,1.67
2023-03-26T02:07:41.093Z,1.10
2023-03-26T02:10:30.325Z,1.13
2023-03-26T02:13:18.298Z,1.20
2023-03-26T02:16:06.764Z,1.30
2023-03-26T02:18:56.254Z,1.07
2023-03-26T02:21:43.697Z,1.27
2023-03-26T02:24:31.625Z,1.30
2023-03-26T02:27:19.046Z,1.00
2023-03-26T02:30:07.976Z,1.13
2023-03-26T02:32:59.123Z,1.57
2023-03-26T02:35:47.253Z,1.53
2023-03-26T02:38:35.218Z,1.30
2023-03-26T02:41:23.169Z,1.30
2023-03-26T02:44:10.768Z,1.20
2023-03-26T02:46:58.521Z,1.30
2023-03-26T02:49:46.310Z,1.27
2023-03-26T02:52:33.891Z,1.47
2023-03-26T02:55:21.491Z,1.10
2023-03-26T02:58:09.432Z,1.13
2023-03-26T03:00:57.203Z,1.03
2023-03-26T03:03:47.758Z,1.23
2023-03-26T03:06:35.190Z,1.20
2023-03-26T03:09:23.841Z,1.20
2023-03-26T03:12:11.591Z,1.20
2023-03-26T03:14:59.533Z,1.30
2023-03-26T03:17:47.630Z,1.43
2023-03-26T03:20:36.289Z,1.43
2023-03-26T03:23:23.716Z,1.50
2023-03-26T03:26:14.738Z,1.30
2023-03-26T03:29:02.172Z,1.30
2023-03-26T03:31:50.128Z,1.40
2023-03-26T03:34:38.594Z,1.20
2023-03-26T03:37:27.492Z,1.70
2023-03-26T03:40:14.913Z,1.97
2023-03-26T03:43:02.857Z,1.10
2023-03-26T03:45:50.893Z,0.90
2023-03-26T03:48:39.205Z,1.20
2023-03-26T03:51:26.632Z,1.40
2023-03-26T03:54:14.768Z,1.20
2023-03-26T03:57:04.017Z,1.40
2023-03-26T03:59:51.467Z,1.27
2023-03-26T04:02:42.966Z,1.23
2023-03-26T04:05:30.815Z,1.50
2023-03-26T04:08:18.813Z,1.67
2023-03-26T04:11:06.806Z,1.20
2023-03-26T04:13:54.790Z,1.60
2023-03-26T04:16:42.201Z,1.33
2023-03-26T04:19:30.125Z,1.37
2023-03-26T04:22:18.427Z,1.80
2023-03-26T04:25:06.541Z,1.33
2023-03-26T04:27:58.296Z,1.50
2023-03-26T04:30:46.195Z,1.37
2023-03-26T04:33:34.755Z,1.57
2023-03-26T04:36:27.943Z,1.30
2023-03-26T04:39:15.396Z,1.50
2023-03-26T04:42:03.315Z,1.50
2023-03-26T04:44:52.272Z,1.50
2023-03-26T04:47:40.321Z,1.37
2023-03-26T04:50:27.779Z,1.10
2023-03-26T04:53:18.286Z,1.47
2023-03-26T04:56:27.286Z,1.50
2023-03-26T04:59:17.260Z,1.20
2023-03-26T05:02:06.555Z,1.57
2023-03-26T05:04:54.048Z,1.03
2023-03-26T05:07:42.760Z,1.37
2023-03-26T05:10:30.284Z,1.30
2023-03-26T05:13:18.207Z,1.40
2023-03-26T05:16:06.517Z,1.60
2023-03-26T05:18:54.620Z,1.27
2023-03-26T05:21:42.086Z,1.50
2023-03-26T05:24:30.071Z,1.40
2023-03-26T05:27:20.110Z,1.33
2023-03-26T05:30:08.580Z,1.70
2023-03-26T05:32:57.170Z,1.77
2023-03-26T05:35:44.608Z,1.40
2023-03-26T05:38:32.225Z,1.47
2023-03-26T05:41:19.719Z,1.07
2023-03-26T05:44:07.687Z,1.47
2023-03-26T05:46:55.170Z,1.33
2023-03-26T05:49:43.119Z,1.47
2023-03-26T05:52:31.110Z,1.10
2023-03-26T05:55:20.599Z,1.30
2023-03-26T05:58:08.533Z,1.53
2023-03-26T06:01:06.100Z,1.40
2023-03-26T06:03:53.740Z,1.20
2023-03-26T06:06:41.722Z,1.23
2023-03-26T06:09:30.029Z,1.40
2023-03-26T06:12:17.488Z,0.97
2023-03-26T06:15:05.976Z,1.33
2023-03-26T06:17:53.450Z,1.20
2023-03-26T06:20:42.128Z,1.53
2023-03-26T06:23:29.595Z,1.20
2023-03-26T06:26:17.042Z,1.37
2023-03-26T06:29:04.974Z,1.37
2023-03-26T06:31:52.432Z,1.37
2023-03-26T06:34:40.414Z,1.60
2023-03-26T06:37:28.382Z,0.90
2023-03-26T06:40:16.380Z,1.20
2023-03-26T06:43:06.830Z,1.27
2023-03-26T06:45:57.895Z,1.33
2023-03-26T06:48:45.386Z,1.53
2023-03-26T06:51:33.349Z,1.40
2023-03-26T06:54:21.338Z,1.37
2023-03-26T06:57:08.823Z,1.70
2023-03-26T06:59:56.763Z,1.47
2023-03-26T07:02:44.311Z,1.50
2023-03-26T07:05:32.411Z,1.50
2023-03-26T07:08:20.107Z,1.00
2023-03-26T07:11:08.158Z,1.50
2023-03-26T07:13:59.551Z,1.20
2023-03-26T07:16:47.494Z,1.50
2023-03-26T07:19:35.622Z,1.30
2023-03-26T07:22:24.296Z,1.47
2023-03-26T07:25:12.969Z,1.50
2023-03-26T07:28:09.469Z,1.30
2023-03-26T07:31:01.490Z,2.10
2023-03-26T07:33:55.085Z,1.27
2023-03-26T07:36:53.405Z,1.90
2023-03-26T07:39:47.147Z,1.17
2023-03-26T07:42:45.095Z,2.07
2023-03-26T07:45:41.284Z,3.23
2023-03-26T07:48:33.907Z,3.10
2023-03-26T07:51:21.946Z,2.30
2023-03-26T07:54:11.379Z,2.57
2023-03-26T07:57:04.381Z,1.17
2023-03-26T07:59:59.199Z,1.17
2023-03-26T08:02:51.478Z,1.63
2023-03-26T08:05:42.242Z,1.30
2023-03-26T08:08:49.050Z,1.23
2023-03-26T08:11:42.634Z,2.50
2023-03-26T08:14:49.611Z,1.50
2023-03-26T08:17:53.472Z,1.57
2023-03-26T08:20:50.152Z,1.30
2023-03-26T08:23:50.951Z,1.40
2023-03-26T08:26:49.878Z,1.43
2023-03-26T08:30:03.543Z,3.03
2023-03-26T08:32:57.284Z,3.60
2023-03-26T08:35:46.722Z,3.20
2023-03-26T08:38:34.648Z,2.33
2023-03-26T08:41:28.775Z,2.00
2023-03-26T08:44:16.828Z,1.83
2023-03-26T08:47:04.312Z,1.70
2023-03-26T08:50:10.875Z,2.03
2023-03-26T08:53:16.984Z,1.60
2023-03-26T08:56:07.590Z,1.73
2023-03-26T08:58:58.579Z,1.40
2023-03-26T09:02:15.642Z,1.23
2023-03-26T09:05:22.133Z,1.73
2023-03-26T09:08:30.125Z,1.40
2023-03-26T09:11:32.135Z,1.30
2023-03-26T09:14:25.971Z,1.47
2023-03-26T09:17:14.009Z,2.00
2023-03-26T09:20:20.165Z,1.77
2023-03-26T09:23:17.798Z,1.70
2023-03-26T09:26:14.598Z,1.97
2023-03-26T09:29:02.113Z,1.40
2023-03-26T09:32:04.944Z,1.70
2023-03-26T09:34:56.328Z,1.50
2023-03-26T09:37:59.808Z,1.53
2023-03-26T09:40:52.854Z,5.30
2023-03-26T09:44:00.718Z,1.60
2023-03-26T09:46:54.808Z,1.77
2023-03-26T09:49:54.694Z,1.70
2023-03-26T09:53:03.635Z,1.77
2023-03-26T09:55:52.697Z,1.40
2023-03-26T09:58:41.290Z,1.27
2023-03-26T10:01:34.600Z,1.60
2023-03-26T10:04:38.524Z,1.60
2023-03-26T10:07:25.982Z,1.40
2023-03-26T10:10:32.265Z,1.40
2023-03-26T10:13:22.495Z,1.80
2023-03-26T10:16:12.986Z,1.57
2023-03-26T10:19:09.398Z,1.83
2023-03-26T10:21:57.901Z,1.70
2023-03-26T10:24:48.086Z,1.77
2023-03-26T10:27:54.774Z,1.70
2023-03-26T10:30:48.212Z,1.70
2023-03-26T10:33:48.606Z,1.30
2023-03-26T10:36:58.328Z,1.97
2023-03-26T10:39:59.115Z,1.67
2023-03-26T10:42:49.323Z,1.90
2023-03-26T10:45:46.599Z,1.97
2023-03-26T10:48:46.786Z,1.50
2023-03-26T10:51:45.264Z,1.87
2023-03-26T10:54:51.427Z,1.47
2023-03-26T10:57:39.331Z,1.60
2023-03-26T11:00:29.571Z,1.60
2023-03-26T11:03:22.753Z,1.40
2023-03-26T11:06:10.281Z,1.40
2023-03-26T11:09:22.769Z,1.40
2023-03-26T11:12:26.738Z,1.23
2023-03-26T11:15:25.127Z,1.33
2023-03-26T11:18:13.189Z,1.10
2023-03-26T11:21:19.510Z,1.77
2023-03-26T11:24:25.836Z,1.57
2023-03-26T11:27:20.927Z,1.37
2023-03-26T11:30:20.147Z,1.47
2023-03-26T11:33:11.272Z,1.00
2023-03-26T11:36:01.984Z,0.90
2023-03-26T11:38:50.770Z,1.07
2023-03-26T11:41:38.673Z,1.13
2023-03-26T11:44:49.469Z,0.90
2023-03-26T11:47:43.816Z,0.73
2023-03-26T11:50:33.671Z,0.90
2023-03-26T11:53:30.680Z,0.70
2023-03-26T11:56:41.629Z,1.10
2023-03-26T11:59:57.547Z,0.97
2023-03-26T12:02:47.146Z,0.80
2023-03-26T12:05:47.528Z,1.00
2023-03-26T12:08:38.979Z,0.80
2023-03-26T12:11:28.352Z,0.90
2023-03-26T12:14:21.400Z,0.93
2023-03-26T12:17:10.660Z,0.80
2023-03-26T12:19:58.644Z,0.87
2023-03-26T12:22:47.799Z,1.00
2023-03-26T12:25:37.995Z,0.90
2023-03-26T12:28:33.209Z,1.10
2023-03-26T12:31:20.707Z,1.07
2023-03-26T12:34:15.480Z,0.90
2023-03-26T12:37:03.524Z,0.90
2023-03-26T12:40:12.583Z,1.00
2023-03-26T12:44:54.655Z,1.33
2023-03-26T12:47:55.646Z,1.10
2023-03-26T12:49:32.069Z,1.40
2023-03-26T12:52:31.474Z,1.00
2023-03-26T12:55:32.665Z,1.10
2023-03-26T12:58:32.729Z,1.00
2023-03-26T13:01:33.251Z,1.43
2023-03-26T13:04:39.476Z,0.90
2023-03-26T13:07:30.189Z,1.00
2023-03-26T13:10:34.432Z,1.00
2023-03-26T13:13:40.500Z,1.43
2023-03-26T13:16:41.977Z,0.93
2023-03-26T13:19:34.281Z,1.00
2023-03-26T13:22:31.154Z,1.00
2023-03-26T13:25:24.510Z,0.97
2023-03-26T13:28:18.528Z,1.03
2023-03-26T13:31:06.040Z,1.27
2023-03-26T13:34:12.478Z,1.40
2023-03-26T13:37:21.979Z,0.87
2023-03-26T13:40:27.793Z,1.00
2023-03-26T13:43:34.391Z,0.80
2023-03-26T13:46:31.393Z,1.00
2023-03-26T13:49:43.083Z,1.00
2023-03-26T13:52:48.022Z,0.90
2023-03-26T13:55:40.542Z,0.83
2023-03-26T13:58:34.301Z,1.17
2023-03-26T14:01:34.812Z,1.10
2023-03-26T14:04:36.934Z,1.20
2023-03-26T14:07:31.144Z,1.00
2023-03-26T14:10:26.637Z,1.07
2023-03-26T14:13:22.476Z,0.80
2023-03-26T14:16:15.035Z,1.00
2023-03-26T14:19:16.387Z,0.97
2023-03-26T14:22:18.652Z,1.00
2023-03-26T14:25:20.377Z,0.80
2023-03-26T14:28:28.561Z,0.80
2023-03-26T14:31:20.977Z,0.83
2023-03-26T14:34:27.067Z,0.60
2023-03-26T14:37:33.073Z,0.80
2023-03-26T14:40:27.651Z,0.83
2023-03-26T14:43:15.731Z,0.53
2023-03-26T14:46:22.572Z,0.70
2023-03-26T14:49:29.419Z,1.13
2023-03-26T14:52:38.357Z,0.80
2023-03-26T14:55:43.876Z,0.90
2023-03-26T14:58:50.260Z,0.70
2023-03-26T15:01:43.829Z,0.87
2023-03-26T15:04:50.363Z,0.93
2023-03-26T15:07:41.302Z,0.83
2023-03-26T15:10:49.529Z,1.33
2023-03-26T15:13:43.227Z,1.20
2023-03-26T15:16:50.009Z,1.27
2023-03-26T15:19:52.674Z,1.20
2023-03-26T15:22:53.211Z,1.47
2023-03-26T15:25:54.825Z,1.07
2023-03-26T15:29:01.552Z,1.00
2023-03-26T15:31:52.616Z,0.80
2023-03-26T15:34:54.661Z,0.97
2023-03-26T15:37:54.003Z,1.10
2023-03-26T15:40:47.541Z,0.90
2023-03-26T15:44:24.376Z,0.90
2023-03-26T15:47:21.735Z,0.90
2023-03-26T15:50:27.863Z,0.90
2023-03-26T15:53:23.738Z,0.80
2023-03-26T15:56:18.926Z,0.80
2023-03-26T15:59:11.233Z,0.60
2023-03-26T16:02:10.504Z,1.00
2023-03-26T16:05:08.361Z,0.70
2023-03-26T16:08:04.858Z,0.70
2023-03-26T16:10:58.754Z,0.80
2023-03-26T16:13:51.030Z,0.77
2023-03-26T16:16:57.999Z,1.03
2023-03-26T16:19:51.818Z,0.97
2023-03-26T16:22:46.132Z,1.07
2023-03-26T16:25:36.746Z,0.73
2023-03-26T16:28:29.045Z,0.90
2023-03-26T16:31:37.302Z,0.70
2023-03-26T16:34:51.002Z,1.00
2023-03-26T16:37:43.226Z,0.90
2023-03-26T16:40:34.475Z,0.70
2023-03-26T16:43:22.451Z,0.80
2023-03-26T16:46:12.935Z,1.10
2023-03-26T16:49:00.863Z,1.00
2023-03-26T16:51:48.248Z,0.80
2023-03-26T16:54:36.605Z,0.90
2023-03-26T16:57:27.089Z,0.70
2023-03-26T17:00:27.619Z,0.70
2023-03-26T17:03:15.135Z,1.10
2023-03-26T17:06:06.470Z,0.90
2023-03-26T17:09:13.954Z,0.83
2023-03-26T17:12:13.697Z,1.43
2023-03-26T17:15:20.501Z,0.83
2023-03-26T17:18:08.020Z,0.90
2023-03-26T17:20:58.153Z,1.10
2023-03-26T17:23:51.670Z,1.13
2023-03-26T17:26:45.925Z,0.90
2023-03-26T17:29:48.749Z,1.03
2023-03-26T17:32:57.552Z,1.00
2023-03-26T17:35:49.190Z,0.90
2023-03-26T17:38:57.370Z,0.80
2023-03-26T17:41:54.887Z,1.00
2023-03-26T17:44:44.273Z,1.00
2023-03-26T17:47:38.685Z,0.60
2023-03-26T17:50:30.853Z,0.70
2023-03-26T17:53:21.362Z,0.67
2023-03-26T17:56:20.447Z,0.70
2023-03-26T17:59:12.139Z,0.70
2023-03-26T18:02:00.953Z,0.80
2023-03-26T18:04:51.624Z,1.10
2023-03-26T18:07:57.961Z,0.67
2023-03-26T18:10:51.723Z,0.50
2023-03-26T18:14:08.633Z,0.60
2023-03-26T18:17:00.221Z,0.50
2023-03-26T18:19:49.396Z,0.60
2023-03-26T18:22:37.036Z,0.97
2023-03-26T18:25:26.243Z,0.80
2023-03-26T18:28:14.825Z,0.60
2023-03-26T18:31:31.537Z,0.77
2023-03-26T18:34:20.067Z,0.80
2023-03-26T18:37:16.911Z,0.60
2023-03-26T18:40:23.478Z,0.60
2023-03-26T18:43:25.362Z,0.73
2023-03-26T18:46:19.972Z,1.00
2023-03-26T18:49:07.967Z,1.10
2023-03-26T18:51:57.452Z,1.20
2023-03-26T18:54:47.455Z,1.77
2023-03-26T18:57:35.500Z,1.00
2023-03-26T19:00:25.355Z,0.70
2023-03-26T19:03:15.239Z,0.70
2023-03-26T19:06:04.574Z,0.90
2023-03-26T19:08:54.018Z,0.70
2023-03-26T19:11:42.090Z,0.90
2023-03-26T19:14:35.682Z,0.90
2023-03-26T19:17:24.667Z,0.90
2023-03-26T19:20:16.236Z,0.87
2023-03-26T19:23:05.077Z,0.70
2023-03-26T19:25:56.900Z,0.90
2023-03-26T19:28:49.305Z,0.80
2023-03-26T19:31:42.944Z,0.90
2023-03-26T19:34:33.580Z,0.90
2023-03-26T19:37:25.527Z,0.80
2023-03-26T19:40:14.591Z,0.67
2023-03-26T19:43:04.394Z,0.80
2023-03-26T19:46:00.128Z,0.90
2023-03-26T19:48:53.069Z,0.80
2023-03-26T19:51:41.451Z,0.70
2023-03-26T19:54:30.427Z,1.00
2023-03-26T19:57:18.447Z,0.90
2023-03-26T20:00:13.352Z,0.87
2023-03-26T20:03:01.688Z,0.93
2023-03-26T20:05:49.026Z,0.70
2023-03-26T20:08:37.094Z,0.83
2023-03-26T20:11:27.866Z,0.90
2023-03-26T20:14:26.663Z,1.20
2023-03-26T20:17:15.949Z,0.77
2023-03-26T20:20:06.215Z,0.80
2023-03-26T20:22:54.126Z,0.70
2023-03-26T20:25:46.383Z,0.77
2023-03-26T20:28:42.435Z,0.70
2023-03-26T20:31:36.364Z,0.70
2023-03-26T20:34:24.531Z,0.60
2023-03-26T20:37:12.047Z,0.70
2023-03-26T20:39:59.333Z,0.70
2023-03-26T20:42:47.227Z,0.70
2023-03-26T20:45:34.708Z,0.70
2023-03-26T20:48:24.021Z,0.70
2023-03-26T20:51:13.953Z,0.80
2023-03-26T20:54:02.478Z,0.70
2023-03-26T20:56:50.641Z,0.60
2023-03-26T20:59:39.779Z,0.83
2023-03-26T21:02:27.367Z,0.73
2023-03-26T21:05:14.882Z,0.90
2023-03-26T21:08:02.502Z,0.70
2023-03-26T21:10:50.083Z,0.60
2023-03-26T21:13:39.952Z,0.60
2023-03-26T21:16:27.645Z,0.87
2023-03-26T21:19:16.244Z,0.80
2023-03-26T21:22:18.904Z,0.60
2023-03-26T21:25:17.359Z,0.70
2023-03-26T21:28:06.110Z,0.60
2023-03-26T21:30:53.801Z,0.90
2023-03-26T21:33:41.142Z,0.80
2023-03-26T21:36:29.742Z,0.80
2023-03-26T21:39:17.325Z,0.70
2023-03-26T21:42:06.027Z,0.70
2023-03-26T21:44:53.616Z,0.60
2023-03-26T21:47:41.871Z,0.90
2023-03-26T21:50:29.552Z,0.70
2023-03-26T21:53:17.942Z,0.60
2023-03-26T21:56:14.045Z,0.70
2023-03-26T21:59:05.597Z,0.70
2023-03-26T22:02:02.304Z,0.70
2023-03-26T22:04:49.977Z,1.03
2023-03-26T22:07:56.993Z,1.20
2023-03-26T22:10:44.571Z,0.70
2023-03-26T22:13:32.461Z,0.93
2023-03-26T22:16:25.080Z,1.23
2023-03-26T22:19:14.220Z,1.00
2023-03-26T22:22:01.740Z,1.00
2023-03-26T22:24:49.653Z,0.90
2023-03-26T22:27:44.010Z,0.80
2023-03-26T22:30:33.637Z,0.70
2023-03-26T22:33:21.124Z,0.60
2023-03-26T22:36:22.850Z,0.80
2023-03-26T22:39:12.139Z,0.70
2023-03-26T22:42:02.514Z,0.50
2023-03-26T22:44:49.983Z,0.63
2023-03-26T22:47:38.713Z,0.60
2023-03-26T22:50:26.114Z,0.63
2023-03-26T22:53:14.050Z,1.60
2023-03-26T22:56:02.042Z,0.50
2023-03-26T22:58:50.019Z,0.70
2023-03-26T23:01:38.422Z,0.70
2023-03-26T23:04:31.992Z,0.50
2023-03-26T23:07:20.284Z,0.60
2023-03-26T23:10:09.075Z,0.70
2023-03-26T23:12:56.974Z,0.63
2023-03-26T23:15:45.010Z,0.70
2023-03-26T23:18:33.119Z,0.60
2023-03-26T23:21:22.128Z,0.70
2023-03-26T23:24:09.570Z,0.60
2023-03-26T23:26:57.576Z,0.73
2023-03-26T23:29:46.258Z,0.70
2023-03-26T23:32:37.750Z,0.50
2023-03-26T23:35:26.154Z,0.53
2023-03-26T23:38:14.114Z,0.60
2023-03-26T23:41:01.829Z,0.60
2023-03-26T23:43:56.937Z,0.60
2023-03-26T23:46:44.395Z,0.70
2023-03-26T23:49:31.924Z,1.10
2023-03-26T23:52:19.385Z,0.60
2023-03-26T23:55:08.074Z,0.80
2023-03-26T23:57:55.590Z,0.60
